createdAt,value
2018-08-14T00:03:05.347Z,28.07
2018-08-14T00:06:10.417Z,30.87
2018-08-14T00:09:14.643Z,31.27
2018-08-14T00:12:18.892Z,31.07
2018-08-14T00:15:23.191Z,29.07
2018-08-14T00:18:27.425Z,30.50
2018-08-14T00:21:31.658Z,31.10
2018-08-14T00:24:35.881Z,33.47
2018-08-14T00:27:41.015Z,35.87
2018-08-14T00:30:45.214Z,36.07
2018-08-14T00:33:49.471Z,39.90
2018-08-14T00:36:53.793Z,39.43
2018-08-14T00:39:58.037Z,41.80
2018-08-14T00:43:04.228Z,43.50
2018-08-14T00:46:08.461Z,44.07
2018-08-14T00:49:12.685Z,45.83
2018-08-14T00:52:17.073Z,49.87
2018-08-14T00:55:22.776Z,49.33
2018-08-14T00:58:27.016Z,55.60
2018-08-14T01:01:31.280Z,53.33
2018-08-14T01:04:35.788Z,57.90
2018-08-14T01:07:40.039Z,56.30
2018-08-14T01:10:44.297Z,60.23
2018-08-14T01:13:48.554Z,65.33
2018-08-14T01:16:52.810Z,67.60
2018-08-14T01:19:57.045Z,69.80
2018-08-14T01:23:01.712Z,71.77
2018-08-14T01:26:05.944Z,77.70
2018-08-14T01:29:10.173Z,80.67
2018-08-14T01:32:15.661Z,77.47
2018-08-14T01:35:19.990Z,77.47
2018-08-14T01:38:24.211Z,69.63
2018-08-14T01:41:28.444Z,75.80
2018-08-14T01:44:32.693Z,76.57
2018-08-14T01:47:36.925Z,68.90
2018-08-14T01:50:41.193Z,67.90
2018-08-14T01:53:45.430Z,76.70
2018-08-14T01:56:49.641Z,78.03
2018-08-14T01:59:53.893Z,76.07
2018-08-14T02:02:58.137Z,79.67
2018-08-14T02:06:02.390Z,85.93
2018-08-14T02:09:09.537Z,82.23
2018-08-14T02:12:14.134Z,85.90
2018-08-14T02:15:18.985Z,87.53
2018-08-14T02:18:23.189Z,80.83
2018-08-14T02:21:27.396Z,81.73
2018-08-14T02:24:31.611Z,85.20
2018-08-14T02:27:35.845Z,88.70
2018-08-14T02:30:40.108Z,85.93
2018-08-14T02:33:44.340Z,85.90
2018-08-14T02:36:48.624Z,84.63
2018-08-14T02:39:52.870Z,85.27
2018-08-14T02:42:57.105Z,89.63
2018-08-14T02:46:01.405Z,87.20
2018-08-14T02:49:05.662Z,91.60
2018-08-14T02:52:09.920Z,84.57
2018-08-14T02:55:19.087Z,86.00
2018-08-14T02:58:23.333Z,82.97
2018-08-14T03:01:27.560Z,81.13
2018-08-14T03:04:31.781Z,78.53
2018-08-14T03:07:36.040Z,67.90
2018-08-14T03:10:40.260Z,67.50
2018-08-14T03:13:44.509Z,66.93
2018-08-14T03:16:48.812Z,62.23
2018-08-14T03:19:53.247Z,64.20
2018-08-14T03:22:57.496Z,65.27
2018-08-14T03:26:01.789Z,63.13
2018-08-14T03:29:06.029Z,66.33
2018-08-14T03:32:10.242Z,61.33
2018-08-14T03:35:15.928Z,61.50
2018-08-14T03:38:20.174Z,65.07
2018-08-14T03:41:24.445Z,67.33
2018-08-14T03:44:28.677Z,62.43
2018-08-14T03:47:32.950Z,59.83
2018-08-14T03:50:37.156Z,54.00
2018-08-14T03:53:41.410Z,56.03
2018-08-14T03:56:45.644Z,53.97
2018-08-14T03:59:49.877Z,55.43
2018-08-14T04:02:54.076Z,51.27
2018-08-14T04:05:58.329Z,60.67
2018-08-14T04:09:02.569Z,61.53
2018-08-14T04:12:06.807Z,60.40
2018-08-14T04:15:12.448Z,57.83
2018-08-14T04:18:16.697Z,62.70
2018-08-14T04:21:20.947Z,63.77
2018-08-14T04:24:25.197Z,64.73
2018-08-14T04:27:29.441Z,66.03
2018-08-14T04:30:33.648Z,63.03
2018-08-14T04:33:37.858Z,65.40
2018-08-14T04:36:42.040Z,67.87
2018-08-14T04:39:46.273Z,64.00
2018-08-14T04:42:50.473Z,71.77
2018-08-14T04:45:54.760Z,65.57
2018-08-14T04:48:58.969Z,64.53
2018-08-14T04:52:03.465Z,67.20
2018-08-14T04:55:08.825Z,65.93
2018-08-14T04:58:13.085Z,65.23
2018-08-14T05:01:17.361Z,68.63
2018-08-14T05:04:21.601Z,68.50
2018-08-14T05:07:25.805Z,63.10
2018-08-14T05:10:30.017Z,77.10
2018-08-14T05:13:38.400Z,64.30
2018-08-14T05:16:42.604Z,68.47
2018-08-14T05:19:46.854Z,73.90
2018-08-14T05:22:51.174Z,71.07
2018-08-14T05:25:58.820Z,67.37
2018-08-14T05:29:04.049Z,70.67
2018-08-14T05:32:08.432Z,70.20
2018-08-14T05:35:13.256Z,76.53
2018-08-14T05:38:17.496Z,82.23
2018-08-14T05:41:21.764Z,75.83
2018-08-14T05:44:26.790Z,78.43
2018-08-14T05:47:31.157Z,81.87
2018-08-14T05:50:36.873Z,86.13
2018-08-14T05:53:41.129Z,81.60
2018-08-14T05:56:46.793Z,87.40
2018-08-14T05:59:51.301Z,82.67
2018-08-14T06:02:56.298Z,84.07
2018-08-14T06:06:00.508Z,83.67
2018-08-14T06:09:07.685Z,89.10
2018-08-14T06:12:12.604Z,80.83
2018-08-14T06:15:17.293Z,76.23
2018-08-14T06:18:21.552Z,74.00
2018-08-14T06:21:25.816Z,77.87
2018-08-14T06:24:30.625Z,71.07
2018-08-14T06:27:35.217Z,73.60
2018-08-14T06:30:39.484Z,72.17
2018-08-14T06:33:44.726Z,69.57
2018-08-14T06:36:49.493Z,59.93
2018-08-14T06:39:53.745Z,56.00
2018-08-14T06:42:58.033Z,45.57
2018-08-14T06:46:02.365Z,52.50
2018-08-14T06:49:06.693Z,48.73
2018-08-14T06:52:10.909Z,52.33
2018-08-14T06:55:15.967Z,41.33
2018-08-14T06:58:20.209Z,42.23
2018-08-14T07:01:24.477Z,47.87
2018-08-14T07:04:28.704Z,45.80
2018-08-14T07:07:32.953Z,50.60
2018-08-14T07:10:37.192Z,50.83
2018-08-14T07:13:41.416Z,45.43
2018-08-14T07:16:45.674Z,40.97
2018-08-14T07:19:49.933Z,32.17
2018-08-14T07:22:54.211Z,37.07
2018-08-14T07:25:58.470Z,23.10
2018-08-14T07:29:02.785Z,23.33
2018-08-14T07:32:07.138Z,22.53
2018-08-14T07:35:11.432Z,24.67
2018-08-14T07:38:15.713Z,25.47
2018-08-14T07:41:24.327Z,22.00
2018-08-14T07:44:29.091Z,19.37
2018-08-14T07:47:33.395Z,21.33
2018-08-14T07:50:37.640Z,19.80
2018-08-14T07:53:41.914Z,20.30
2018-08-14T07:56:46.137Z,14.83
2018-08-14T07:59:50.399Z,18.10
2018-08-14T08:02:54.621Z,19.83
2018-08-14T08:05:58.870Z,13.97
2018-08-14T08:09:03.165Z,13.70
2018-08-14T08:12:07.514Z,14.50
2018-08-14T08:15:13.361Z,15.43
2018-08-14T08:18:17.657Z,14.90
2018-08-14T08:21:21.907Z,15.10
2018-08-14T08:24:26.195Z,11.97
2018-08-14T08:27:30.553Z,11.53
2018-08-14T08:30:34.860Z,13.20
2018-08-14T08:33:39.129Z,11.30
2018-08-14T08:36:43.417Z,13.40
2018-08-14T08:39:47.730Z,10.37
2018-08-14T08:42:52.039Z,11.50
2018-08-14T08:45:56.321Z,10.47
2018-08-14T08:49:00.616Z,10.43
2018-08-14T08:52:04.853Z,9.93
2018-08-14T08:55:11.234Z,11.43
2018-08-14T08:58:15.627Z,8.93
2018-08-14T09:01:19.812Z,10.53
2018-08-14T09:04:24.061Z,11.27
2018-08-14T09:07:28.256Z,8.53
2018-08-14T09:10:32.512Z,9.07
2018-08-14T09:13:36.737Z,9.60
2018-08-14T09:16:41.005Z,8.40
2018-08-14T09:19:45.272Z,11.27
2018-08-14T09:22:49.549Z,8.30
2018-08-14T09:25:53.785Z,9.83
2018-08-14T09:28:58.063Z,8.90
2018-08-14T09:32:02.378Z,7.90
2018-08-14T09:35:07.917Z,6.20
2018-08-14T09:38:12.144Z,8.33
2018-08-14T09:41:16.465Z,9.40
2018-08-14T09:44:20.744Z,7.43
2018-08-14T09:47:25.018Z,9.47
2018-08-14T09:50:29.276Z,8.17
2018-08-14T09:53:33.505Z,9.30
2018-08-14T09:56:37.753Z,11.03
2018-08-14T09:59:42.073Z,11.03
2018-08-14T10:02:46.313Z,11.10
2018-08-14T10:05:55.767Z,7.93
2018-08-14T10:09:00.069Z,7.90
2018-08-14T10:12:04.393Z,11.43
2018-08-14T10:15:08.695Z,8.97
2018-08-14T10:18:19.555Z,8.17
2018-08-14T10:21:23.934Z,9.70
2018-08-14T10:24:28.332Z,10.33
2018-08-14T10:27:32.717Z,10.53
2018-08-14T10:30:37.093Z,10.93
2018-08-14T10:33:41.366Z,12.53
2018-08-14T10:36:45.623Z,12.17
2018-08-14T10:39:50.005Z,9.60
2018-08-14T10:42:54.193Z,8.83
2018-08-14T10:45:58.470Z,9.50
2018-08-14T10:49:02.724Z,10.53
2018-08-14T10:52:07.009Z,11.77
2018-08-14T10:55:11.332Z,14.33
2018-08-14T10:58:15.605Z,15.87
2018-08-14T11:01:19.874Z,13.60
2018-08-14T11:04:24.110Z,13.13
2018-08-14T11:07:28.395Z,16.67
2018-08-14T11:10:37.840Z,17.53
2018-08-14T11:13:42.063Z,16.63
2018-08-14T11:16:46.604Z,17.27
2018-08-14T11:19:50.812Z,15.93
2018-08-14T11:22:55.082Z,16.30
2018-08-14T11:25:59.321Z,16.97
2018-08-14T11:29:03.569Z,15.90
2018-08-14T11:32:07.881Z,16.30
2018-08-14T11:35:12.095Z,13.00
2018-08-14T11:38:16.332Z,9.77
2018-08-14T11:41:20.532Z,9.73
2018-08-14T11:44:24.773Z,9.23
2018-08-14T11:47:29.001Z,9.20
2018-08-14T11:50:33.204Z,7.20
2018-08-14T11:53:37.405Z,6.97
2018-08-14T11:56:41.693Z,7.70
2018-08-14T11:59:45.905Z,7.50
2018-08-14T12:02:51.003Z,8.70
2018-08-14T12:05:55.244Z,9.03
2018-08-14T12:08:59.492Z,8.63
2018-08-14T12:12:03.727Z,5.93
2018-08-14T12:15:09.612Z,7.53
2018-08-14T12:18:13.919Z,5.70
2018-08-14T12:21:18.145Z,5.30
2018-08-14T12:24:22.368Z,5.37
2018-08-14T12:27:26.589Z,4.63
2018-08-14T12:30:30.838Z,5.53
2018-08-14T12:33:35.113Z,6.10
2018-08-14T12:36:39.337Z,4.73
2018-08-14T12:39:43.556Z,6.30
2018-08-14T12:42:47.781Z,8.13
2018-08-14T12:45:52.017Z,5.70
2018-08-14T12:48:56.216Z,4.33
2018-08-14T12:52:00.453Z,5.10
2018-08-14T12:55:05.052Z,4.60
2018-08-14T12:58:09.244Z,7.40
2018-08-14T13:01:13.461Z,5.03
2018-08-14T13:04:17.693Z,2.97
2018-08-14T13:07:21.920Z,3.30
2018-08-14T13:10:26.169Z,3.33
2018-08-14T13:13:30.380Z,3.50
2018-08-14T13:16:34.663Z,7.50
2018-08-14T13:19:38.889Z,5.60
2018-08-14T13:22:43.096Z,4.17
2018-08-14T13:25:47.400Z,3.33
2018-08-14T13:28:51.613Z,4.47
2018-08-14T13:31:55.826Z,5.27
2018-08-14T13:35:00.086Z,7.43
2018-08-14T13:38:04.308Z,4.90
2018-08-14T13:41:08.576Z,3.53
2018-08-14T13:44:12.796Z,3.80
2018-08-14T13:47:17.038Z,4.10
2018-08-14T13:50:21.291Z,5.27
2018-08-14T13:53:25.524Z,3.57
2018-08-14T13:56:29.753Z,4.87
2018-08-14T13:59:33.963Z,6.97
2018-08-14T14:02:39.083Z,4.67
2018-08-14T14:05:43.353Z,4.53
2018-08-14T14:08:47.577Z,6.57
2018-08-14T14:11:51.843Z,4.47
2018-08-14T14:14:56.050Z,3.33
2018-08-14T14:18:00.317Z,2.40
2018-08-14T14:21:04.817Z,2.70
2018-08-14T14:24:09.030Z,2.53
2018-08-14T14:27:13.369Z,3.50
2018-08-14T14:30:18.173Z,3.43
2018-08-14T14:33:22.485Z,54.40
2018-08-14T14:36:26.725Z,52.20
2018-08-14T14:39:30.990Z,5.47
2018-08-14T14:42:35.232Z,11.97
2018-08-14T14:45:39.489Z,6.43
2018-08-14T14:48:43.752Z,6.17
2018-08-14T14:51:47.976Z,3.30
2018-08-14T14:54:52.185Z,3.60
2018-08-14T14:57:56.429Z,5.57
2018-08-14T15:01:00.671Z,2.40
2018-08-14T15:04:04.873Z,3.43
2018-08-14T15:07:09.144Z,3.60
2018-08-14T15:10:13.386Z,5.37
2018-08-14T15:13:17.614Z,4.13
2018-08-14T15:16:21.845Z,3.57
2018-08-14T15:19:26.121Z,3.70
2018-08-14T15:22:30.397Z,3.70
2018-08-14T15:25:34.665Z,4.57
2018-08-14T15:29:01.879Z,3.77
2018-08-14T15:32:06.159Z,3.67
2018-08-14T15:35:10.386Z,5.57
2018-08-14T15:38:14.653Z,3.53
2018-08-14T15:41:19.206Z,5.33
2018-08-14T15:44:23.503Z,4.20
2018-08-14T15:47:27.764Z,5.93
2018-08-14T15:50:31.973Z,4.37
2018-08-14T15:53:36.233Z,4.73
2018-08-14T15:56:40.821Z,4.50
2018-08-14T15:59:45.014Z,5.77
2018-08-14T16:02:49.209Z,7.23
2018-08-14T16:05:53.427Z,6.53
2018-08-14T16:08:57.861Z,7.73
2018-08-14T16:12:02.099Z,7.37
2018-08-14T16:15:06.500Z,5.77
2018-08-14T16:18:10.805Z,5.07
2018-08-14T16:21:15.052Z,7.97
2018-08-14T16:24:19.520Z,4.10
2018-08-14T16:27:23.788Z,5.90
2018-08-14T16:30:28.291Z,5.07
2018-08-14T16:33:32.704Z,5.97
2018-08-14T16:36:36.991Z,4.50
2018-08-14T16:39:41.193Z,5.37
2018-08-14T16:42:45.404Z,4.53
2018-08-14T16:45:49.607Z,5.43
2018-08-14T16:48:54.037Z,5.40
2018-08-14T16:51:58.237Z,8.07
2018-08-14T16:55:02.501Z,5.90
2018-08-14T16:58:07.171Z,5.30
2018-08-14T17:01:11.432Z,5.20
2018-08-14T17:04:15.612Z,5.03
2018-08-14T17:07:19.849Z,10.97
2018-08-14T17:10:25.120Z,5.20
2018-08-14T17:13:29.372Z,6.03
2018-08-14T17:16:33.609Z,7.40
2018-08-14T17:19:37.677Z,6.90
2018-08-14T17:22:42.287Z,6.43
2018-08-14T17:25:46.493Z,7.50
2018-08-14T17:28:50.715Z,7.83
2018-08-14T17:31:54.927Z,6.83
2018-08-14T17:34:59.228Z,9.17
2018-08-14T17:38:03.438Z,5.60
2018-08-14T17:41:07.641Z,8.43
2018-08-14T17:44:11.972Z,6.30
2018-08-14T17:47:16.157Z,8.17
2018-08-14T17:50:20.797Z,8.00
2018-08-14T17:53:25.001Z,9.30
2018-08-14T17:56:29.521Z,8.33
2018-08-14T17:59:33.696Z,9.30
2018-08-14T18:02:37.893Z,9.90
2018-08-14T18:05:42.096Z,8.23
2018-08-14T18:08:46.325Z,9.27
2018-08-14T18:11:50.505Z,10.87
2018-08-14T18:14:54.712Z,10.27
2018-08-14T18:17:58.902Z,10.63
2018-08-14T18:21:03.121Z,10.73
2018-08-14T18:24:07.360Z,10.63
2018-08-14T18:27:11.597Z,12.13
2018-08-14T18:30:17.037Z,13.60
2018-08-14T18:33:21.405Z,11.00
2018-08-14T18:36:25.505Z,11.90
2018-08-14T18:39:29.736Z,13.30
2018-08-14T18:42:33.971Z,11.30
2018-08-14T18:45:38.153Z,12.73
2018-08-14T18:48:42.391Z,14.47
2018-08-14T18:51:46.601Z,18.50
2018-08-14T18:54:50.837Z,17.27
2018-08-14T18:57:55.044Z,16.43
2018-08-14T19:00:59.253Z,13.53
2018-08-14T19:04:03.815Z,12.07
2018-08-14T19:07:08.092Z,7.70
2018-08-14T19:10:13.441Z,10.97
2018-08-14T19:13:17.669Z,10.37
2018-08-14T19:16:21.883Z,8.23
2018-08-14T19:19:26.089Z,7.83
2018-08-14T19:22:30.297Z,9.33
2018-08-14T19:25:34.534Z,5.67
2018-08-14T19:28:38.752Z,8.90
2018-08-14T19:31:42.964Z,9.07
2018-08-14T19:34:47.145Z,9.77
2018-08-14T19:37:51.392Z,7.40
2018-08-14T19:40:55.612Z,8.87
2018-08-14T19:43:59.835Z,7.50
2018-08-14T19:47:04.029Z,9.27
2018-08-14T19:50:08.482Z,10.10
2018-08-14T19:53:12.696Z,9.10
2018-08-14T19:56:16.893Z,8.27
2018-08-14T19:59:21.121Z,8.20
2018-08-14T20:02:25.317Z,5.90
2018-08-14T20:05:29.544Z,6.37
2018-08-14T20:08:33.761Z,8.73
2018-08-14T20:11:38.169Z,7.33
2018-08-14T20:14:42.340Z,6.37
2018-08-14T20:17:46.548Z,5.33
2018-08-14T20:20:50.792Z,8.83
2018-08-14T20:23:55.006Z,6.97
2018-08-14T20:26:59.324Z,4.67
2018-08-14T20:30:03.616Z,4.67
2018-08-14T20:33:07.975Z,3.23
2018-08-14T20:36:12.203Z,3.40
2018-08-14T20:39:16.441Z,4.87
2018-08-14T20:42:20.638Z,3.27
2018-08-14T20:45:24.857Z,6.50
2018-08-14T20:48:29.062Z,6.77
2018-08-14T20:51:33.280Z,6.67
2018-08-14T20:54:37.465Z,5.67
2018-08-14T20:57:42.681Z,4.83
2018-08-14T21:00:46.883Z,5.87
2018-08-14T21:03:51.085Z,5.10
2018-08-14T21:06:55.308Z,6.97
2018-08-14T21:09:59.504Z,3.60
2018-08-14T21:13:03.737Z,8.90
2018-08-14T21:16:13.384Z,6.70
2018-08-14T21:19:17.580Z,5.93
2018-08-14T21:22:21.823Z,6.97
2018-08-14T21:25:26.032Z,5.67
2018-08-14T21:28:30.255Z,5.07
2018-08-14T21:31:34.473Z,6.67
2018-08-14T21:34:38.751Z,6.03
2018-08-14T21:37:42.964Z,6.07
2018-08-14T21:40:47.171Z,8.53
2018-08-14T21:43:51.414Z,8.67
2018-08-14T21:46:55.618Z,5.73
2018-08-14T21:49:59.863Z,4.67
2018-08-14T21:53:04.099Z,7.20
2018-08-14T21:56:08.771Z,7.00
2018-08-14T21:59:13.029Z,5.70
2018-08-14T22:02:17.250Z,10.53
2018-08-14T22:05:21.527Z,9.93
2018-08-14T22:08:25.776Z,9.27
2018-08-14T22:11:29.985Z,8.37
2018-08-14T22:14:34.168Z,9.70
2018-08-14T22:17:38.406Z,6.37
2018-08-14T22:20:42.636Z,5.43
2018-08-14T22:23:46.840Z,6.93
2018-08-14T22:26:51.052Z,7.07
2018-08-14T22:29:55.273Z,7.70
2018-08-14T22:32:59.477Z,5.93
2018-08-14T22:36:03.668Z,6.13
2018-08-14T22:39:09.440Z,5.27
2018-08-14T22:42:13.626Z,5.00
2018-08-14T22:45:17.869Z,6.97
2018-08-14T22:48:22.067Z,3.67
2018-08-14T22:51:26.272Z,6.63
2018-08-14T22:54:30.543Z,6.60
2018-08-14T22:57:34.743Z,4.90
2018-08-14T23:00:38.957Z,4.70
2018-08-14T23:03:43.150Z,5.03
2018-08-14T23:06:47.391Z,6.23
2018-08-14T23:09:51.650Z,3.10
2018-08-14T23:12:55.857Z,4.30
2018-08-14T23:16:05.999Z,5.87
2018-08-14T23:19:10.217Z,5.80
2018-08-14T23:22:14.398Z,5.93
2018-08-14T23:25:18.625Z,6.67
2018-08-14T23:28:22.845Z,7.90
2018-08-14T23:31:27.107Z,5.23
2018-08-14T23:34:31.305Z,7.50
2018-08-14T23:37:35.608Z,5.07
2018-08-14T23:40:39.801Z,6.40
2018-08-14T23:43:44.022Z,7.20
2018-08-14T23:46:48.221Z,6.03
2018-08-14T23:49:52.412Z,7.37
2018-08-14T23:52:56.629Z,6.30
2018-08-14T23:56:00.849Z,4.07
2018-08-14T23:59:05.509Z,4.17
